Messages - map view · info · telemetry · weather · raw · status · beacons · messages · bulletins · browse · moving · my account
Callsign:
Show:

Loading message packets...

APRS messages are stored for 14 days. It is possible to search using wildcards (*?) after a prefix.

2019-04-22 11:52:23 EDT: WLNK-1>KC1BUF-9: Hello KC1BUF-9
2019-04-22 11:52:42 EDT: SHLBTP>SHLBTP: Info - Cabinet Temp = 78.9F Vcc = 13.5V
2019-04-22 11:52:55 EDT: DB0TS-10>DB0TS-9: T#001,000,000,000,000,000,00000000,Test
2019-04-22 11:52:56 EDT: N7QME-2>N7QME: temps 57.3 55.4 50.2 62.4 54.5 53.2 56.8 53.6
2019-04-22 11:52:58 EDT: XE1KYA-5>XE1KYA-9: ok
2019-04-22 11:53:09 EDT: XE1KYA-5>XE1KYA-9: ok
2019-04-22 11:53:09 EDT: XE1KYA-5>XE1KYA-9: xe1pon
2019-04-22 11:53:11 EDT: EA1CIU>EA1IOF-9: Saludos EA1CIU
2019-04-22 11:53:13 EDT: F6FKQ-4>F4BVC-9: Use "Help" for topics
2019-04-22 11:53:14 EDT: VE3BEO-7>VE3SEP: :-)
2019-04-22 11:53:15 EDT: XE1KYA-5>XE1KYA-9: saludos
2019-04-22 11:53:23 EDT: WLNK-1>KC1BUF-9: Hello KC1BUF-9
2019-04-22 11:53:28 EDT: N0JVW>WA0STX: Will get the aprs settings entered when you have time & Jan is good
2019-04-22 11:53:29 EDT: N0JVW>WA0STX: well
2019-04-22 11:53:39 EDT: SP3WBY>SP3WBY-7: 73
2019-04-22 11:54:05 EDT: KC1BUF-9>WLNK-1: r1
2019-04-22 11:54:06 EDT: WLNK-1>KC1BUF-9: APRSLink: Packet Retries Fm:APRSLINK Msg:On 04/16/2019 16:02:26 UTC
2019-04-22 11:54:14 EDT: MTHOOD>N7QME: hum 50 12 81
2019-04-22 11:54:55 EDT: DB0LUH-1>LU1HVK-1: rejUISS54}
2019-04-22 11:55:06 EDT: WLNK-1>KC1BUF-9: APRSLink: Packet Retries Fm:APRSLINK Msg:On 04/16/2019 16:02:26 UTC
2019-04-22 11:55:19 EDT: WLNK-1>KC1BUF-9: APRSLink recorded the following problem while in communication wit
2019-04-22 11:55:28 EDT: KA6ECT>KA6ECT: FIRE-Report of Fire at I710 N / I710 N Sr91 Con
2019-04-22 11:55:37 EDT: SP3WBY>SP3WBY-7: 73
2019-04-22 11:56:06 EDT: SP3WBY-7>SP3WBY: 73
2019-04-22 11:56:20 EDT: WLNK-1>KC1BUF-9: APRSLink recorded the following problem while in communication wit
2019-04-22 11:57:07 EDT: XE1KYA-5>XE1KYA-9: saludos
2019-04-22 11:57:07 EDT: XE1KYA-5>XE1KYA-9: ok
2019-04-22 11:57:07 EDT: XE1KYA-5>XE1KYA-9: saludines xe1pon
2019-04-22 11:57:07 EDT: XE1KYA-5>XE1KYA-9: ok
2019-04-22 11:57:07 EDT: XE1KYA-5>XE1KYA-9: saludos
2019-04-22 11:57:12 EDT: VK2GJ-2>VK2GJ-7: Directs=VK2RHR-1 VK2AMW-1 VK2BWI-3
2019-04-22 11:57:12 EDT: XE1KYA-5>XE1KYA-9: ok
2019-04-22 11:57:13 EDT: XE1KYA-5>XE1KYA-9: xe1pon
2019-04-22 11:57:21 EDT: JA5UJT-7>JA5FDG-7: Ohayo Gozai masu !
2019-04-22 11:57:55 EDT: LU1HVK-1>APRS: lu1hvk@qsl.net Saludos de Leones - Cordoba AR...
2019-04-22 11:58:09 EDT: YU1TTN>RED-CROSS: Hello RED, welcome to Serbia!
2019-04-22 11:58:20 EDT: WLNK-1>KC1BUF-9: APRSLink recorded the following problem while in communication wit
2019-04-22 11:58:31 EDT: VA7MNW>EMAIL-2: va7jrg@winlink.org testing equipment 73
2019-04-22 11:58:32 EDT: EMAIL-2>VA7MNW: Email sent to va7jrg@winlink.org
2019-04-22 11:59:00 EDT: VA7MNW>EMAIL-2: va7jrg@winlink.org testing equipment thank you
2019-04-22 11:59:01 EDT: EMAIL-2>VA7MNW: Email sent to va7jrg@winlink.org
2019-04-22 11:59:28 EDT: KC1BUF-9>WLNK-1: r2
2019-04-22 11:59:38 EDT: VA7MNW>EMAIL-2: va7jrg@winlink.org testing equipment thank you
2019-04-22 11:59:38 EDT: EMAIL-2>VA7MNW: Email sent to va7jrg@winlink.org
2019-04-22 11:59:59 EDT: VA7MNW>EMAIL-2: va7jrg@winlink.org test
2019-04-22 11:59:59 EDT: EMAIL-2>VA7MNW: Email sent to va7jrg@winlink.org
2019-04-22 12:00:10 EDT: DL9MDI>LX1JH-12: ?APRST
2019-04-22 12:00:13 EDT: DL9MDI>LX1JH-12: ?APRSS
2019-04-22 12:00:26 EDT: VA7MNW>EMAIL-2: va7jrg@winlink.org test
2019-04-22 12:00:27 EDT: EMAIL-2>VA7MNW: Email sent to va7jrg@winlink.org
< previous
FAQ · Blog · Discussion group · Linking to aprs.fi · AIS sites · Service status · Database statistics · Advertising on aprs.fi · Technical details · API · Change log · Planned changes · Credits and thanks · Terms Of Service · iPhone/iPad APRS